Detall de PIREP

Printer-friendly versionPDF version

[2013/07/05 09:25:00]
Flight IATA:CT3208
Pilot Number:042
Company ICAO:CAT
Aircraft Type:MD11/E
PAX:198
Aircraft Registration:PAX
Departing Airport: LEPA
Destination Airport: EBBR
Alternate Airport:EHRD
Online: VATSIM
Route:GALAT UN861 FISTO UY156 ADABI UN858 VANAD UN874 BAMES UT191 PODEM UN873 VEKIN UZ173 ARVOL
Flight Level:F360
No Slew and time accel
No pause
Crash detect
Detect pilot in Cockpit between each 30 and 45 minutes
09:25 Zero fuel Weight: 377798 Lbs, Fuel Weight: 171096 Lbs
09:25 VATSIM:LEPA 050900Z 07012KT 010V110 9999 FEW018 28/17 Q1023 NOSIG
09:25 VATSIM:EBBR 050850Z 29005KT 260V320 9999 BKN011 16/13 Q1029 NOSIG
09:38 Parking Brakes off
09:48 Take-off
09:48 Take off Weight: 547073 Lbs
09:48 Wind: 229º @ 008 Knots Heading: 059º
09:48 POS N39º 33´ 16´´ E002º 45´ 35´´
09:48 Gear Up: 172 Knots
09:48 Flaps:5 at 171 Knots
09:48 Flaps:4 at 188 Knots
09:48 Flaps:3 at 191 Knots
09:48 Flaps:2 at 192 Knots
09:48 Flaps:1 at 192 Knots
09:50 Flaps:0 at 240 Knots
10:03 Wind:310º@054 Knots Heading: 345º Ground Speed: 444 Knots Altitude 30331 ft
10:18 Wind:311º@060 Knots Heading: 348º Ground Speed: 440 Knots Altitude 34274 ft
10:33 Wind:319º@062 Knots Heading: 351º Ground Speed: 433 Knots Altitude 34333 ft
10:48 Wind:322º@066 Knots Heading: 349º Ground Speed: 424 Knots Altitude 34383 ft
11:03 Wind:324º@072 Knots Heading: 011º Ground Speed: 436 Knots Altitude 34412 ft
11:18 Wind:323º@073 Knots Heading: 022º Ground Speed: 444 Knots Altitude 34452 ft
11:33 Wind:329º@046 Knots Heading: 074º Ground Speed: 375 Knots Altitude 27076 ft
11:39 Flaps:1 at 248 Knots
11:42 Flaps:2 at 248 Knots
11:43 Flaps:3 at 244 Knots
11:44 Flaps:4 at 195 Knots
11:44 Flaps:3 at 195 Knots
11:44 Flaps:4 at 195 Knots
11:44 Flaps:5 at 195 Knots
11:44 Flaps:6 at 194 Knots
11:48 Wind:325º@016 Knots Heading: 293º Ground Speed: 172 Knots Altitude 4261 ft
11:48 Flaps:7 at 173 Knots
11:48 Gear Down: 173 Knots
11:49 Flaps:8 at 169 Knots
11:53 TouchDown:Rate -169 ft/min Speed: 162 Knots
11:53 VATSIM:EBBR 051120Z VRB02KT 9999 BKN016 18/14 Q1030 NOSIG
11:53 Land
11:53 Wind:119º@002 Knots
11:53 Heading: 249º
11:53 Flight Duration: 02:05
11:53 Landing Weight: 505758 Lbs
11:53 POS N50º 53´ 36´´ E004º 29´ 56´´
11:59 Parking brakes on
11:59 Block to Block Duration: 02:21
11:59 Final Fuel: 127046 Lbls
11:59 Spent Fuel: 44049 Lbls
11:59 Flight Length: 823 NM
11:59 TOD Land Length: 823 NM

Exportar CSV

Powered by Drupal - Modified by Danger4k